Accueil
METAR-TAF:

METAR-TAF

Aéroports :

Aéroport international d'Anchorage Ted-Stevens

Anchorage, Alaska, États-Unis

latitude: 61-10-28N, longitude: 149-59-46W, altitude: 44 m

Observation

Le bulletin a été fait il y a 28 minutes, à 23:53 UTC
Vent 4 kt de est/nord-est
Température 2°C
Humidité 69%
Pression 1007 hPa
Visibilité: 16.1 km
Nuages fragmentés à une hauteur de 17000 ft
Nuages fragmentés à une hauteur de 20000 ft

METAR: PANC 112353Z 06004KT 10SM BKN170 BKN200 02/M03 A2973 RMK AO2 SLP068 T00171028 10022 21011 56024 $

Heure: 15:21 (00:21 UTC)

Prévision

Le bulletin a été fait il y a 43 minutes, à 23:38 UTC
Prévision valable du 12 à 00 UTC au 13 à 06 UTC
Vent 6 kt de nord-est
Visibilité: 10 km
Quelques nuages à une hauteur de 10000 ft
Nuages fragmentés à une hauteur de 20000 ft

TAF: PANC 112338Z 1200/1306 05006KT P6SM FEW100 BKN200

Observations et prévisions météorologiques de plus de 4000 aéroports (messages METAR et TAF).

Les stations disponibles sont représentées par des disques jaunes et rouges sur la carte.

Passer la souris dessus pour voir le nom de la station.

Cliquer dessus pour voir les observations et prévisions météorologiques.

Pour changer de carte: cliquez sur les boutons verts avec une croix noire pour zoomer, sur le bouton vert avec un tiret pour effectuer un zoom arrière, ou sur les flèches vertes pour les cartes adjacentes.


METAR-TAF: